createdAt,value
2023-04-11T00:00:28.042Z,23.46
2023-04-11T00:01:28.115Z,23.44
2023-04-11T00:02:28.305Z,23.47
2023-04-11T00:03:28.366Z,23.48
2023-04-11T00:04:28.321Z,23.46
2023-04-11T00:05:28.293Z,23.50
2023-04-11T00:06:28.340Z,23.46
2023-04-11T00:07:28.387Z,23.47
2023-04-11T00:08:28.475Z,23.47
2023-04-11T00:09:28.499Z,23.50
2023-04-11T00:10:28.571Z,23.48
2023-04-11T00:11:28.610Z,23.53
2023-04-11T00:12:28.655Z,23.48
2023-04-11T00:13:28.725Z,23.51
2023-04-11T00:14:28.770Z,23.48
2023-04-11T00:15:28.825Z,23.48
2023-04-11T00:16:28.944Z,23.48
2023-04-11T00:17:28.961Z,23.53
2023-04-11T00:18:28.958Z,23.50
2023-04-11T00:19:29.022Z,23.51
2023-04-11T00:20:29.051Z,23.53
2023-04-11T00:21:29.096Z,23.50
2023-04-11T00:22:29.249Z,23.50
2023-04-11T00:23:29.233Z,23.51
2023-04-11T00:24:29.270Z,23.53
2023-04-11T00:25:29.338Z,23.50
2023-04-11T00:26:29.376Z,23.47
2023-04-11T00:27:29.439Z,23.48
2023-04-11T00:28:29.502Z,23.46
2023-04-11T00:29:29.561Z,23.50
2023-04-11T00:30:29.588Z,23.46
2023-04-11T00:31:29.736Z,23.48
2023-04-11T00:32:29.723Z,23.48
2023-04-11T00:33:30.183Z,23.48
2023-04-11T00:34:29.775Z,23.47
2023-04-11T00:35:29.819Z,23.48
2023-04-11T00:36:30.121Z,23.47
2023-04-11T00:37:29.898Z,23.44
2023-04-11T00:38:30.037Z,23.44
2023-04-11T00:39:30.044Z,23.44
2023-04-11T00:40:30.096Z,23.46
2023-04-11T00:41:30.124Z,23.51
2023-04-11T00:42:30.199Z,23.47
2023-04-11T00:43:30.231Z,23.50
2023-04-11T00:44:31.130Z,23.52
2023-04-11T00:45:30.385Z,23.48
2023-04-11T00:46:30.420Z,23.48
2023-04-11T00:47:30.520Z,23.52
2023-04-11T00:48:30.535Z,23.52
2023-04-11T00:49:30.556Z,23.50
2023-04-11T00:50:30.603Z,23.52
2023-04-11T00:51:30.675Z,23.51
2023-04-11T00:52:30.701Z,23.55
2023-04-11T00:53:30.746Z,23.52
2023-04-11T00:54:30.817Z,23.55
2023-04-11T00:55:30.857Z,23.54
2023-04-11T00:56:30.926Z,23.54
2023-04-11T00:57:30.960Z,23.49
2023-04-11T00:58:31.019Z,23.52
2023-04-11T00:59:31.134Z,23.48
2023-04-11T01:00:31.150Z,23.51
2023-04-11T01:01:31.224Z,23.50
2023-04-11T01:02:31.372Z,23.56
2023-04-11T01:03:31.540Z,23.54
2023-04-11T01:04:31.374Z,23.58
2023-04-11T01:05:31.476Z,23.55
2023-04-11T01:06:31.499Z,23.55
2023-04-11T01:07:31.567Z,23.59
2023-04-11T01:08:31.665Z,23.55
2023-04-11T01:09:31.702Z,23.58
2023-04-11T01:10:31.774Z,23.63
2023-04-11T01:11:31.815Z,23.56
2023-04-11T01:12:31.903Z,23.58
2023-04-11T01:13:31.928Z,23.59
2023-04-11T01:14:32.005Z,23.59
2023-04-11T01:15:32.064Z,23.56
2023-04-11T01:16:32.170Z,23.56
2023-04-11T01:17:32.201Z,23.58
2023-04-11T01:18:32.221Z,23.55
2023-04-11T01:19:32.296Z,23.55
2023-04-11T01:20:32.349Z,23.54
2023-04-11T01:21:32.415Z,23.56
2023-04-11T01:22:32.489Z,23.58
2023-04-11T01:23:32.525Z,23.54
2023-04-11T01:24:32.567Z,23.56
2023-04-11T01:25:32.616Z,23.63
2023-04-11T01:26:32.684Z,23.59
2023-04-11T01:27:32.735Z,23.62
2023-04-11T01:28:32.822Z,23.60
2023-04-11T01:29:32.871Z,23.56
2023-04-11T01:30:32.927Z,23.58
2023-04-11T01:31:32.990Z,23.60
2023-04-11T01:32:33.052Z,23.62
2023-04-11T01:33:33.119Z,23.65
2023-04-11T01:34:33.148Z,23.59
2023-04-11T01:35:33.237Z,23.59
2023-04-11T01:36:33.256Z,23.61
2023-04-11T01:37:33.338Z,23.60
2023-04-11T01:38:33.384Z,23.60
2023-04-11T01:39:33.446Z,23.62
2023-04-11T01:40:33.515Z,23.59
2023-04-11T01:41:33.577Z,23.64
2023-04-11T01:42:33.619Z,23.66
2023-04-11T01:43:33.668Z,23.59
2023-04-11T01:44:33.721Z,23.60
2023-04-11T01:45:33.796Z,23.59
2023-04-11T01:46:33.861Z,23.63
2023-04-11T01:47:33.970Z,23.62
2023-04-11T01:48:34.064Z,23.59
2023-04-11T01:49:34.045Z,23.63
2023-04-11T01:50:34.806Z,23.60
2023-04-11T01:51:34.289Z,23.58
2023-04-11T01:52:34.341Z,23.66
2023-04-11T01:53:34.399Z,23.62
2023-04-11T01:54:34.493Z,23.65
2023-04-11T01:55:34.550Z,23.62
2023-04-11T01:56:34.581Z,23.66
2023-04-11T01:57:34.672Z,23.66
2023-04-11T01:58:34.713Z,23.70
2023-04-11T01:59:34.771Z,23.65
2023-04-11T02:00:34.853Z,23.67
2023-04-11T02:01:34.908Z,23.60
2023-04-11T02:02:35.039Z,23.70
2023-04-11T02:03:35.217Z,23.63
2023-04-11T02:04:35.057Z,23.67
2023-04-11T02:05:35.157Z,23.70
2023-04-11T02:06:35.214Z,23.71
2023-04-11T02:07:35.271Z,23.63
2023-04-11T02:08:35.334Z,23.63
2023-04-11T02:09:35.385Z,23.67
2023-04-11T02:10:35.462Z,23.64
2023-04-11T02:11:35.522Z,23.59
2023-04-11T02:12:35.618Z,23.63
2023-04-11T02:13:35.666Z,23.61
2023-04-11T02:14:35.702Z,23.64
2023-04-11T02:15:35.818Z,23.66
2023-04-11T02:16:35.855Z,23.60
2023-04-11T02:17:35.966Z,23.62
2023-04-11T02:18:35.956Z,23.60
2023-04-11T02:19:36.046Z,23.60
2023-04-11T02:20:36.185Z,23.60
2023-04-11T02:21:36.170Z,23.64
2023-04-11T02:22:36.232Z,23.59
2023-04-11T02:23:36.302Z,23.61
2023-04-11T02:24:36.308Z,23.64
2023-04-11T02:25:36.373Z,23.67
2023-04-11T02:26:36.464Z,23.66
2023-04-11T02:27:36.527Z,23.66
2023-04-11T02:28:36.618Z,23.68
2023-04-11T02:29:36.627Z,23.64
2023-04-11T02:30:36.685Z,23.68
2023-04-11T02:31:36.917Z,23.67
2023-04-11T02:32:36.845Z,23.66
2023-04-11T02:33:36.874Z,23.64
2023-04-11T02:34:36.959Z,23.66
2023-04-11T02:35:37.054Z,23.64
2023-04-11T02:36:37.097Z,23.68
2023-04-11T02:37:37.100Z,23.68
2023-04-11T02:38:37.149Z,23.67
2023-04-11T02:39:37.178Z,23.70
2023-04-11T02:40:38.212Z,23.70
2023-04-11T02:41:37.299Z,23.67
2023-04-11T02:42:37.313Z,23.64
2023-04-11T02:43:37.378Z,23.67
2023-04-11T02:44:37.412Z,23.64
2023-04-11T02:45:37.451Z,23.68
2023-04-11T02:46:37.583Z,23.66
2023-04-11T02:47:37.553Z,23.68
2023-04-11T02:48:37.622Z,23.68
2023-04-11T02:49:37.697Z,23.67
2023-04-11T02:50:37.740Z,23.70
2023-04-11T02:51:37.816Z,23.70
2023-04-11T02:52:37.913Z,23.68
2023-04-11T02:53:37.924Z,23.70
2023-04-11T02:54:37.941Z,23.73
2023-04-11T02:55:38.064Z,23.68
2023-04-11T02:56:38.080Z,23.74
2023-04-11T02:57:38.153Z,23.71
2023-04-11T02:58:38.228Z,23.67
2023-04-11T02:59:38.286Z,23.71
2023-04-11T03:00:38.412Z,23.68
2023-04-11T03:01:38.659Z,23.66
2023-04-11T03:02:38.551Z,23.67
2023-04-11T03:03:38.560Z,23.75
2023-04-11T03:04:38.650Z,23.70
2023-04-11T03:05:38.663Z,23.73
2023-04-11T03:06:38.694Z,23.71
2023-04-11T03:07:38.796Z,23.70
2023-04-11T03:08:38.863Z,23.71
2023-04-11T03:09:38.907Z,23.71
2023-04-11T03:10:38.979Z,23.77
2023-04-11T03:11:39.047Z,23.77
2023-04-11T03:12:39.096Z,23.71
2023-04-11T03:13:39.134Z,23.74
2023-04-11T03:14:39.169Z,23.75
2023-04-11T03:15:39.284Z,23.77
2023-04-11T03:16:39.242Z,23.71
2023-04-11T03:17:39.380Z,23.75
2023-04-11T03:18:39.390Z,23.77
2023-04-11T03:19:39.433Z,23.75
2023-04-11T03:20:39.502Z,23.71
2023-04-11T03:21:39.566Z,23.77
2023-04-11T03:22:39.623Z,23.75
2023-04-11T03:23:39.634Z,23.75
2023-04-11T03:24:39.672Z,23.74
2023-04-11T03:25:39.749Z,23.73
2023-04-11T03:26:39.804Z,23.78
2023-04-11T03:27:39.878Z,23.74
2023-04-11T03:28:39.961Z,23.75
2023-04-11T03:29:39.992Z,23.75
2023-04-11T03:30:40.053Z,23.73
2023-04-11T03:31:40.158Z,23.75
2023-04-11T03:32:40.138Z,23.75
2023-04-11T03:33:40.120Z,23.74
2023-04-11T03:34:40.181Z,23.75
2023-04-11T03:35:40.230Z,23.74
2023-04-11T03:36:40.276Z,23.75
2023-04-11T03:37:40.306Z,23.75
2023-04-11T03:38:40.357Z,23.75
2023-04-11T03:39:40.432Z,23.75
2023-04-11T03:40:40.483Z,23.75
2023-04-11T03:41:40.516Z,23.72
2023-04-11T03:42:40.604Z,23.78
2023-04-11T03:43:40.665Z,23.77
2023-04-11T03:44:40.703Z,23.74
2023-04-11T03:45:40.764Z,23.74
2023-04-11T03:46:40.876Z,23.72
2023-04-11T03:47:40.857Z,23.71
2023-04-11T03:48:40.896Z,23.74
2023-04-11T03:49:40.955Z,23.78
2023-04-11T03:50:40.994Z,23.75
2023-04-11T03:51:41.033Z,23.78
2023-04-11T03:52:41.090Z,23.79
2023-04-11T03:53:41.163Z,23.75
2023-04-11T03:54:41.211Z,23.74
2023-04-11T03:55:41.228Z,23.77
2023-04-11T03:56:41.265Z,23.71
2023-04-11T03:57:41.352Z,23.73
2023-04-11T03:58:41.369Z,23.74
2023-04-11T03:59:41.403Z,23.75
2023-04-11T04:00:41.477Z,23.81
2023-04-11T04:01:41.601Z,23.76
2023-04-11T04:02:41.796Z,23.76
2023-04-11T04:03:41.939Z,23.75
2023-04-11T04:04:41.810Z,23.72
2023-04-11T04:05:41.740Z,23.79
2023-04-11T04:06:41.812Z,23.78
2023-04-11T04:07:41.866Z,23.74
2023-04-11T04:08:41.933Z,23.79
2023-04-11T04:09:41.998Z,23.81
2023-04-11T04:10:42.050Z,23.74
2023-04-11T04:11:42.118Z,23.75
2023-04-11T04:12:42.168Z,23.71
2023-04-11T04:13:42.249Z,23.76
2023-04-11T04:14:42.303Z,23.78
2023-04-11T04:15:42.361Z,23.74
2023-04-11T04:16:42.469Z,23.76
2023-04-11T04:17:42.522Z,23.71
2023-04-11T04:18:42.558Z,23.73
2023-04-11T04:19:42.581Z,23.75
2023-04-11T04:20:42.676Z,23.72
2023-04-11T04:21:42.756Z,23.71
2023-04-11T04:22:42.773Z,23.76
2023-04-11T04:23:42.853Z,23.74
2023-04-11T04:24:42.864Z,23.72
2023-04-11T04:25:42.902Z,23.74
2023-04-11T04:26:43.012Z,23.76
2023-04-11T04:27:43.028Z,23.78
2023-04-11T04:28:43.193Z,23.76
2023-04-11T04:29:43.145Z,23.79
2023-04-11T04:30:43.176Z,23.75
2023-04-11T04:31:43.285Z,23.75
2023-04-11T04:32:43.278Z,23.82
2023-04-11T04:33:43.318Z,23.75
2023-04-11T04:34:43.406Z,23.76
2023-04-11T04:35:43.419Z,23.84
2023-04-11T04:36:43.424Z,23.82
2023-04-11T04:37:43.435Z,23.79
2023-04-11T04:38:43.600Z,23.81
2023-04-11T04:39:43.584Z,23.76
2023-04-11T04:40:43.565Z,23.82
2023-04-11T04:41:43.670Z,23.81
2023-04-11T04:42:43.705Z,23.84
2023-04-11T04:43:43.739Z,23.84
2023-04-11T04:44:43.788Z,23.79
2023-04-11T04:45:43.928Z,23.79
2023-04-11T04:46:43.903Z,23.78
2023-04-11T04:47:43.965Z,23.79
2023-04-11T04:48:44.004Z,23.81
2023-04-11T04:49:44.105Z,23.81
2023-04-11T04:50:44.141Z,23.79
2023-04-11T04:51:44.184Z,23.79
2023-04-11T04:52:44.258Z,23.82
2023-04-11T04:53:44.331Z,23.82
2023-04-11T04:54:44.397Z,23.85
2023-04-11T04:55:44.453Z,23.86
2023-04-11T04:56:44.504Z,23.89
2023-04-11T04:57:44.564Z,23.89
2023-04-11T04:58:44.633Z,23.86
2023-04-11T04:59:44.708Z,23.89
2023-04-11T05:00:44.797Z,23.88
2023-04-11T05:01:44.894Z,23.86
2023-04-11T05:02:45.016Z,23.87
2023-04-11T05:03:45.046Z,23.82
2023-04-11T05:04:45.032Z,23.79
2023-04-11T05:05:45.738Z,23.82
2023-04-11T05:06:45.201Z,23.82
2023-04-11T05:07:45.213Z,23.87
2023-04-11T05:08:45.306Z,23.82
2023-04-11T05:09:45.351Z,23.82
2023-04-11T05:10:45.418Z,23.81
2023-04-11T05:11:45.469Z,23.86
2023-04-11T05:12:45.547Z,23.81
2023-04-11T05:13:45.592Z,23.83
2023-04-11T05:14:45.636Z,23.82
2023-04-11T05:15:45.723Z,23.83
2023-04-11T05:16:45.863Z,23.84
2023-04-11T05:17:45.875Z,23.84
2023-04-11T05:18:45.934Z,23.88
2023-04-11T05:19:45.958Z,23.89
2023-04-11T05:20:46.053Z,23.89
2023-04-11T05:21:46.113Z,23.90
2023-04-11T05:22:46.182Z,23.92
2023-04-11T05:23:46.225Z,23.89
2023-04-11T05:24:46.310Z,23.89
2023-04-11T05:25:46.365Z,23.83
2023-04-11T05:26:46.425Z,23.82
2023-04-11T05:27:46.481Z,23.88
2023-04-11T05:28:46.570Z,23.85
2023-04-11T05:29:46.670Z,23.86
2023-04-11T05:30:46.712Z,23.89
2023-04-11T05:31:46.734Z,23.81
2023-04-11T05:32:46.867Z,23.85
2023-04-11T05:33:46.950Z,23.86
2023-04-11T05:34:46.926Z,23.86
2023-04-11T05:35:47.004Z,23.88
2023-04-11T05:36:47.043Z,23.83
2023-04-11T05:37:47.119Z,23.81
2023-04-11T05:38:47.160Z,23.82
2023-04-11T05:39:47.173Z,23.81
2023-04-11T05:40:47.199Z,23.85
2023-04-11T05:41:47.249Z,23.83
2023-04-11T05:42:47.325Z,23.82
2023-04-11T05:43:47.362Z,23.85
2023-04-11T05:44:47.434Z,23.83
2023-04-11T05:45:47.540Z,23.82
2023-04-11T05:46:47.461Z,23.83
2023-04-11T05:47:47.527Z,23.81
2023-04-11T05:48:47.537Z,23.84
2023-04-11T05:49:47.624Z,23.85
2023-04-11T05:50:47.618Z,23.86
2023-04-11T05:51:47.642Z,23.82
2023-04-11T05:52:47.668Z,23.85
2023-04-11T05:53:47.701Z,23.86
2023-04-11T05:54:47.736Z,23.87
2023-04-11T05:55:47.772Z,23.87
2023-04-11T05:56:47.830Z,23.84
2023-04-11T05:57:47.825Z,23.83
2023-04-11T05:58:47.906Z,23.84
2023-04-11T05:59:47.917Z,23.81
2023-04-11T06:00:47.969Z,23.87
2023-04-11T06:01:48.063Z,23.82
2023-04-11T06:02:48.220Z,23.84
2023-04-11T06:03:48.304Z,23.82
2023-04-11T06:04:48.312Z,23.86
2023-04-11T06:05:48.266Z,23.90
2023-04-11T06:06:48.298Z,23.82
2023-04-11T06:07:48.349Z,23.82
2023-04-11T06:08:48.418Z,23.85
2023-04-11T06:09:48.437Z,23.78
2023-04-11T06:10:48.498Z,23.85
2023-04-11T06:11:48.591Z,23.85
2023-04-11T06:12:48.651Z,23.87
2023-04-11T06:13:48.716Z,23.92
2023-04-11T06:14:48.735Z,23.90
2023-04-11T06:15:48.829Z,23.89
2023-04-11T06:16:48.872Z,23.92
2023-04-11T06:17:49.041Z,23.89
2023-04-11T06:18:48.994Z,23.93
2023-04-11T06:19:49.081Z,23.93
2023-04-11T06:20:49.124Z,23.91
2023-04-11T06:21:49.196Z,23.89
2023-04-11T06:22:49.239Z,23.92
2023-04-11T06:23:49.338Z,23.89
2023-04-11T06:24:49.385Z,23.91
2023-04-11T06:25:49.456Z,23.92
2023-04-11T06:26:49.525Z,23.89
2023-04-11T06:27:49.588Z,23.91
2023-04-11T06:28:49.640Z,23.96
2023-04-11T06:29:49.701Z,23.89
2023-04-11T06:30:49.778Z,23.88
2023-04-11T06:31:49.952Z,23.95
2023-04-11T06:32:49.934Z,23.95
2023-04-11T06:33:49.995Z,23.90
2023-04-11T06:34:50.040Z,23.96
2023-04-11T06:35:50.118Z,23.96
2023-04-11T06:36:50.164Z,23.96
2023-04-11T06:37:50.253Z,23.95
2023-04-11T06:38:50.250Z,24.01
2023-04-11T06:39:50.318Z,23.95
2023-04-11T06:40:50.388Z,23.97
2023-04-11T06:41:50.433Z,23.99
2023-04-11T06:42:50.490Z,24.02
2023-04-11T06:43:50.572Z,24.02
2023-04-11T06:44:50.606Z,24.01
2023-04-11T06:45:50.665Z,24.05
2023-04-11T06:46:50.770Z,24.06
2023-04-11T06:47:50.823Z,24.02
2023-04-11T06:48:50.840Z,24.02
2023-04-11T06:49:50.899Z,24.06
2023-04-11T06:50:50.972Z,24.02
2023-04-11T06:51:51.076Z,24.12
2023-04-11T06:52:51.067Z,24.13
2023-04-11T06:53:51.130Z,24.12
2023-04-11T06:54:51.204Z,24.18
2023-04-11T06:55:51.232Z,24.18
2023-04-11T06:56:51.276Z,24.18
2023-04-11T06:57:51.340Z,24.20
2023-04-11T06:58:51.406Z,24.29
2023-04-11T06:59:51.439Z,24.33
2023-04-11T07:00:51.504Z,24.35
2023-04-11T07:01:51.615Z,24.39
2023-04-11T07:02:51.793Z,24.41
2023-04-11T07:03:51.816Z,24.62
2023-04-11T07:04:51.779Z,24.61
2023-04-11T07:05:51.823Z,24.60
2023-04-11T07:06:51.880Z,24.69
2023-04-11T07:07:51.949Z,24.71
2023-04-11T07:08:52.013Z,25.29
2023-04-11T07:09:52.051Z,25.13
2023-04-11T07:10:52.131Z,25.16
2023-04-11T07:11:52.133Z,25.52
2023-04-11T07:12:52.218Z,25.54
2023-04-11T07:13:52.273Z,25.73
2023-04-11T07:14:52.284Z,26.90
2023-04-11T07:15:52.376Z,27.25
2023-04-11T07:16:52.386Z,27.88
2023-04-11T07:17:53.074Z,27.30
2023-04-11T07:18:52.500Z,28.01
2023-04-11T07:19:52.552Z,32.16
2023-04-11T07:20:52.611Z,32.95
2023-04-11T07:21:52.645Z,33.25
2023-04-11T07:22:52.723Z,34.28
2023-04-11T07:23:52.787Z,33.92
2023-04-11T07:24:52.780Z,33.34
2023-04-11T07:25:52.841Z,31.86
2023-04-11T07:26:52.842Z,30.93
2023-04-11T07:27:52.917Z,30.36
2023-04-11T07:28:52.969Z,29.70
2023-04-11T07:29:53.038Z,29.70
2023-04-11T07:30:53.100Z,29.70
2023-04-11T07:31:53.195Z,29.50
2023-04-11T07:32:53.212Z,29.31
2023-04-11T07:33:53.294Z,29.32
2023-04-11T07:34:53.319Z,29.25
2023-04-11T07:35:53.385Z,29.45
2023-04-11T07:36:53.394Z,31.11
2023-04-11T07:37:53.496Z,31.96
2023-04-11T07:38:53.544Z,32.18
2023-04-11T07:39:53.573Z,33.05
2023-04-11T07:40:53.673Z,32.77
2023-04-11T07:41:53.734Z,32.28
2023-04-11T07:42:53.730Z,30.64
2023-04-11T07:43:53.979Z,30.14
2023-04-11T07:44:53.851Z,29.81
2023-04-11T07:45:53.968Z,29.71
2023-04-11T07:46:53.982Z,29.71
2023-04-11T07:47:54.139Z,29.51
2023-04-11T07:48:54.144Z,29.42
2023-04-11T07:49:54.150Z,29.34
2023-04-11T07:50:54.243Z,29.29
2023-04-11T07:51:54.306Z,29.29
2023-04-11T07:52:54.348Z,29.21
2023-04-11T07:53:54.605Z,29.55
2023-04-11T07:54:54.474Z,30.14
2023-04-11T07:55:54.505Z,29.99
2023-04-11T07:56:54.576Z,29.53
2023-04-11T07:57:54.614Z,29.35
2023-04-11T07:58:54.674Z,29.22
2023-04-11T07:59:54.726Z,29.25
2023-04-11T08:00:54.763Z,29.26
2023-04-11T08:01:54.829Z,29.77
2023-04-11T08:02:54.964Z,30.04
2023-04-11T08:03:55.128Z,30.12
2023-04-11T08:04:55.070Z,30.17
2023-04-11T08:05:55.014Z,29.82
2023-04-11T08:06:55.067Z,29.67
2023-04-11T08:07:55.132Z,29.55
2023-04-11T08:08:55.203Z,29.81
2023-04-11T08:09:55.260Z,29.93
2023-04-11T08:10:55.300Z,29.71
2023-04-11T08:11:55.360Z,29.53
2023-04-11T08:12:55.425Z,29.38
2023-04-11T08:13:55.876Z,29.28
2023-04-11T08:14:55.528Z,29.26
2023-04-11T08:15:55.591Z,29.21
2023-04-11T08:16:55.718Z,29.43
2023-04-11T08:17:55.766Z,29.22
2023-04-11T08:18:55.793Z,29.14
2023-04-11T08:19:55.792Z,28.93
2023-04-11T08:20:55.879Z,29.02
2023-04-11T08:21:55.935Z,29.07
2023-04-11T08:22:55.956Z,29.15
2023-04-11T08:23:56.233Z,29.18
2023-04-11T08:24:56.075Z,29.17
2023-04-11T08:25:56.129Z,29.14
2023-04-11T08:26:56.214Z,29.19
2023-04-11T08:27:56.247Z,29.18
2023-04-11T08:28:56.311Z,29.13
2023-04-11T08:29:56.368Z,28.94
2023-04-11T08:30:56.442Z,28.96
2023-04-11T08:31:56.453Z,29.00
2023-04-11T08:32:56.527Z,28.97
2023-04-11T08:33:58.352Z,28.88
2023-04-11T08:34:56.562Z,28.82
2023-04-11T08:35:56.598Z,28.88
2023-04-11T08:36:56.574Z,28.93
2023-04-11T08:37:56.574Z,28.89
2023-04-11T08:38:56.593Z,28.79
2023-04-11T08:39:56.537Z,28.78
2023-04-11T08:40:56.531Z,28.65
2023-04-11T08:41:56.518Z,28.51
2023-04-11T08:42:56.516Z,28.49
2023-04-11T08:43:56.632Z,28.40
2023-04-11T08:44:56.486Z,28.37
2023-04-11T08:45:56.517Z,28.39
2023-04-11T08:46:56.495Z,28.46
2023-04-11T08:47:56.508Z,28.43
2023-04-11T08:48:56.469Z,28.39
2023-04-11T08:49:56.455Z,28.35
2023-04-11T08:50:56.458Z,28.32
2023-04-11T08:51:56.486Z,28.36
2023-04-11T08:52:56.464Z,28.33
2023-04-11T08:53:56.646Z,28.32
2023-04-11T08:54:56.437Z,28.23
2023-04-11T08:55:56.425Z,28.27
2023-04-11T08:56:56.409Z,28.18
2023-04-11T08:57:56.419Z,28.22
2023-04-11T08:58:56.428Z,28.22
2023-04-11T08:59:56.389Z,28.22
2023-04-11T09:00:56.399Z,28.18
2023-04-11T09:01:57.380Z,28.19
2023-04-11T09:02:56.473Z,28.25
2023-04-11T09:03:56.539Z,28.25
2023-04-11T09:04:56.434Z,28.32
2023-04-11T09:05:56.351Z,28.29
2023-04-11T09:06:57.396Z,28.28
2023-04-11T09:07:56.355Z,28.22
2023-04-11T09:08:56.343Z,28.19
2023-04-11T09:09:56.329Z,28.21
2023-04-11T09:10:56.344Z,28.17
2023-04-11T09:11:56.408Z,28.15
2023-04-11T09:12:56.458Z,28.19
2023-04-11T09:13:56.614Z,28.18
2023-04-11T09:14:56.627Z,28.15
2023-04-11T09:15:56.663Z,28.19
2023-04-11T09:16:56.626Z,28.16
2023-04-11T09:17:59.704Z,28.13
2023-04-11T09:18:56.835Z,28.11
2023-04-11T09:19:56.716Z,28.08
2023-04-11T09:20:56.690Z,28.08
2023-04-11T09:21:56.711Z,28.11
2023-04-11T09:22:56.655Z,28.09
2023-04-11T09:23:56.830Z,28.07
2023-04-11T09:24:56.663Z,28.08
2023-04-11T09:25:56.636Z,28.05
2023-04-11T09:26:56.637Z,28.02
2023-04-11T09:27:56.624Z,28.00
2023-04-11T09:28:56.810Z,28.04
2023-04-11T09:29:56.648Z,28.01
2023-04-11T09:30:56.642Z,28.04
2023-04-11T09:31:56.582Z,27.99
2023-04-11T09:32:56.593Z,27.93
2023-04-11T09:33:57.045Z,28.15
2023-04-11T09:34:56.595Z,28.00
2023-04-11T09:35:56.566Z,27.96
2023-04-11T09:36:56.593Z,27.93
2023-04-11T09:37:56.557Z,27.94
2023-04-11T09:38:56.557Z,27.93
2023-04-11T09:39:56.554Z,27.94
2023-04-11T09:40:56.550Z,27.97
2023-04-11T09:41:56.512Z,27.97
2023-04-11T09:42:56.559Z,27.90
2023-04-11T09:43:56.835Z,27.87
2023-04-11T09:44:56.531Z,27.87
2023-04-11T09:45:56.517Z,27.93
2023-04-11T09:46:56.582Z,27.91
2023-04-11T09:47:56.520Z,27.91
2023-04-11T09:48:56.526Z,27.90
2023-04-11T09:49:56.563Z,27.90
2023-04-11T09:50:58.952Z,27.89
2023-04-11T09:51:56.661Z,27.86
2023-04-11T09:52:59.083Z,27.83
2023-04-11T09:53:56.812Z,27.80
2023-04-11T09:54:56.660Z,27.78
2023-04-11T09:55:56.685Z,27.82
2023-04-11T09:56:56.661Z,27.79
2023-04-11T09:57:56.635Z,27.80
2023-04-11T09:58:56.822Z,27.82
2023-04-11T09:59:56.737Z,27.75
2023-04-11T10:00:56.611Z,27.75
2023-04-11T10:01:56.764Z,27.72
2023-04-11T10:02:56.776Z,27.72
2023-04-11T10:03:57.703Z,27.72
2023-04-11T10:04:56.652Z,27.72
2023-04-11T10:05:56.593Z,27.68
2023-04-11T10:06:56.600Z,27.74
2023-04-11T10:07:56.596Z,27.70
2023-04-11T10:08:56.724Z,27.79
2023-04-11T10:09:56.545Z,27.74
2023-04-11T10:10:56.594Z,27.73
2023-04-11T10:11:56.543Z,27.74
2023-04-11T10:12:56.565Z,27.75
2023-04-11T10:13:56.693Z,27.68
2023-04-11T10:14:56.557Z,27.70
2023-04-11T10:15:56.522Z,27.71
2023-04-11T10:16:56.523Z,27.66
2023-04-11T10:17:56.575Z,27.67
2023-04-11T10:18:57.335Z,27.60
2023-04-11T10:19:56.818Z,27.67
2023-04-11T10:20:56.506Z,27.66
2023-04-11T10:21:56.521Z,27.64
2023-04-11T10:22:56.458Z,27.60
2023-04-11T10:23:56.732Z,27.60
2023-04-11T10:24:56.476Z,27.63
2023-04-11T10:25:56.533Z,27.63
2023-04-11T10:26:56.535Z,27.64
2023-04-11T10:27:56.586Z,27.63
2023-04-11T10:28:56.638Z,27.66
2023-04-11T10:29:56.664Z,27.59
2023-04-11T10:30:56.744Z,27.57
2023-04-11T10:31:56.941Z,27.57
2023-04-11T10:32:56.861Z,27.61
2023-04-11T10:33:57.004Z,27.59
2023-04-11T10:34:56.887Z,27.54
2023-04-11T10:35:57.013Z,27.58
2023-04-11T10:36:56.988Z,27.53
2023-04-11T10:37:56.998Z,27.53
2023-04-11T10:38:57.045Z,27.55
2023-04-11T10:39:57.103Z,27.56
2023-04-11T10:40:57.156Z,27.58
2023-04-11T10:41:57.207Z,27.56
2023-04-11T10:42:57.214Z,27.55
2023-04-11T10:43:57.537Z,27.53
2023-04-11T10:44:57.333Z,27.52
2023-04-11T10:45:57.365Z,27.51
2023-04-11T10:46:57.427Z,27.49
2023-04-11T10:47:57.557Z,27.48
2023-04-11T10:48:57.477Z,27.45
2023-04-11T10:49:57.511Z,27.45
2023-04-11T10:50:57.538Z,27.45
2023-04-11T10:51:57.618Z,27.41
2023-04-11T10:52:57.635Z,27.51
2023-04-11T10:53:57.785Z,27.44
2023-04-11T10:54:57.729Z,27.44
2023-04-11T10:55:57.728Z,27.50
2023-04-11T10:56:57.748Z,27.48
2023-04-11T10:57:57.782Z,27.44
2023-04-11T10:58:57.815Z,27.43
2023-04-11T10:59:57.876Z,27.46
2023-04-11T11:00:57.932Z,27.48
2023-04-11T11:01:58.039Z,27.50
2023-04-11T11:02:58.123Z,27.44
2023-04-11T11:03:58.114Z,27.50
2023-04-11T11:04:58.102Z,27.50
2023-04-11T11:05:58.041Z,27.52
2023-04-11T11:06:58.090Z,27.49
2023-04-11T11:07:58.096Z,27.46
2023-04-11T11:08:58.173Z,27.50
2023-04-11T11:09:58.170Z,27.48
2023-04-11T11:10:58.186Z,27.39
2023-04-11T11:11:58.218Z,27.39
2023-04-11T11:12:58.243Z,27.43
2023-04-11T11:13:58.610Z,27.49
2023-04-11T11:14:58.316Z,27.52
2023-04-11T11:15:58.355Z,27.39
2023-04-11T11:16:58.484Z,27.48
2023-04-11T11:17:58.441Z,27.46
2023-04-11T11:18:58.461Z,27.46
2023-04-11T11:19:58.493Z,27.51
2023-04-11T11:20:58.524Z,27.56
2023-04-11T11:21:58.545Z,27.53
2023-04-11T11:22:58.554Z,27.56
2023-04-11T11:23:58.864Z,27.47
2023-04-11T11:24:58.633Z,27.46
2023-04-11T11:25:58.649Z,27.48
2023-04-11T11:26:58.702Z,27.44
2023-04-11T11:27:58.689Z,27.31
2023-04-11T11:28:58.716Z,27.27
2023-04-11T11:29:58.767Z,27.27
2023-04-11T11:30:58.795Z,27.31
2023-04-11T11:31:58.843Z,27.30
2023-04-11T11:32:58.850Z,27.32
2023-04-11T11:34:18.441Z,27.41
2023-04-11T11:34:59.881Z,27.39
2023-04-11T11:35:58.912Z,27.37
2023-04-11T11:36:58.919Z,27.45
2023-04-11T11:37:58.838Z,27.43
2023-04-11T11:38:58.840Z,27.38
2023-04-11T11:39:58.880Z,27.39
2023-04-11T11:40:58.824Z,27.35
2023-04-11T11:41:58.827Z,27.31
2023-04-11T11:42:58.806Z,27.34
2023-04-11T11:43:58.959Z,27.35
2023-04-11T11:44:58.814Z,27.41
2023-04-11T11:45:58.852Z,27.45
2023-04-11T11:46:58.763Z,27.40
2023-04-11T11:47:58.765Z,27.49
2023-04-11T11:48:59.123Z,27.42
2023-04-11T11:49:58.871Z,27.42
2023-04-11T11:50:58.870Z,27.49
2023-04-11T11:51:58.947Z,27.52
2023-04-11T11:52:58.976Z,27.47
2023-04-11T11:53:58.976Z,27.47
2023-04-11T11:54:58.998Z,27.36
2023-04-11T11:55:59.083Z,27.36
2023-04-11T11:56:59.121Z,27.39
2023-04-11T11:57:59.150Z,27.43
2023-04-11T11:58:59.526Z,27.43
2023-04-11T11:59:59.236Z,27.45
2023-04-11T12:00:59.283Z,27.50
2023-04-11T12:01:59.360Z,27.48
2023-04-11T12:02:59.479Z,27.53
2023-04-11T12:03:59.773Z,27.54
2023-04-11T12:04:59.791Z,27.57
2023-04-11T12:05:59.463Z,27.55
2023-04-11T12:06:59.488Z,27.48
2023-04-11T12:07:59.511Z,27.48
2023-04-11T12:08:59.581Z,27.39
2023-04-11T12:09:59.621Z,27.32
2023-04-11T12:10:59.639Z,27.28
2023-04-11T12:11:59.709Z,27.29
2023-04-11T12:12:59.728Z,27.40
2023-04-11T12:13:59.829Z,27.31
2023-04-11T12:14:59.789Z,27.33
2023-04-11T12:15:59.820Z,27.40
2023-04-11T12:16:59.852Z,27.33
2023-04-11T12:17:59.924Z,27.37
2023-04-11T12:18:59.913Z,27.38
2023-04-11T12:19:59.957Z,27.42
2023-04-11T12:20:59.966Z,27.42
2023-04-11T12:21:59.998Z,27.39
2023-04-11T12:23:00.030Z,27.53
2023-04-11T12:24:00.112Z,27.48
2023-04-11T12:25:00.135Z,27.48
2023-04-11T12:26:00.148Z,27.46
2023-04-11T12:27:06.870Z,27.37
2023-04-11T12:28:01.184Z,27.33
2023-04-11T12:29:00.149Z,27.31
2023-04-11T12:30:00.194Z,27.28
2023-04-11T12:31:00.195Z,27.35
2023-04-11T12:32:00.167Z,27.35
2023-04-11T12:33:00.175Z,27.35
2023-04-11T12:34:00.148Z,27.38
2023-04-11T12:35:00.210Z,27.37
2023-04-11T12:36:00.186Z,27.38
2023-04-11T12:37:00.127Z,27.37
2023-04-11T12:38:00.164Z,27.38
2023-04-11T12:39:00.107Z,27.42
2023-04-11T12:40:00.101Z,27.38
2023-04-11T12:41:14.278Z,27.40
2023-04-11T12:42:01.077Z,27.42
2023-04-11T12:43:00.052Z,27.42
2023-04-11T12:44:00.102Z,27.43
2023-04-11T12:45:00.086Z,27.47
2023-04-11T12:46:00.135Z,27.46
2023-04-11T12:47:00.118Z,27.38
2023-04-11T12:48:00.072Z,27.43
2023-04-11T12:49:00.038Z,27.44
2023-04-11T12:50:00.033Z,27.46
2023-04-11T12:51:00.031Z,27.46
2023-04-11T12:52:00.036Z,27.47
2023-04-11T12:53:00.066Z,27.44